Time;durP1;ratioP1;P1;durP2;ratioP2;P2;SDS_P1;SDS_P2;PMS_P1;PMS_P2;Temp;Humidity;BMP_temperature;BMP_pressure;BME280_temperature;BME280_humidity;BME280_pressure;Samples;Min_cycle;Max_cycle;Signal;HPM_P1;HPM_P2
2021/12/04 00:02:01;;;;;;;3.07;2.13;;;3.20;99.90;;;;;;5087855;28;20215;-66
2021/12/04 00:04:31;;;;;;;2.70;1.90;;;3.30;99.90;;;;;;5088041;28;20992;-66
2021/12/04 00:06:57;;;;;;;2.10;2.00;;;3.20;99.90;;;;;;5088053;28;20218;-66
2021/12/04 00:09:23;;;;;;;2.60;2.10;;;3.20;99.90;;;;;;5070522;28;20206;-68
2021/12/04 00:11:57;;;;;;;3.93;2.47;;;3.20;99.90;;;;;;5087777;28;20186;-66
2021/12/04 00:14:23;;;;;;;2.33;2.13;;;3.20;99.90;;;;;;5086692;28;20531;-66
2021/12/04 00:16:49;;;;;;;3.72;2.25;;;3.20;99.90;;;;;;5086749;28;20516;-67
2021/12/04 00:19:15;;;;;;;3.15;2.20;;;3.20;99.90;;;;;;5087718;28;20289;-67
2021/12/04 00:21:41;;;;;;;2.30;2.10;;;3.20;99.90;;;;;;5086483;28;20185;-67
2021/12/04 00:24:08;;;;;;;2.27;2.07;;;3.20;99.90;;;;;;5087485;28;20446;-66
2021/12/04 00:26:34;;;;;;;2.10;2.00;;;3.30;99.90;;;;;;5087305;28;20432;-66
2021/12/04 00:28:59;;;;;;;2.10;2.00;;;3.20;99.90;;;;;;5087531;28;20522;-67
2021/12/04 00:31:26;;;;;;;2.13;2.00;;;3.30;99.90;;;;;;5068812;28;20812;-65
2021/12/04 00:33:52;;;;;;;3.03;2.60;;;3.20;99.90;;;;;;5087435;28;20227;-68
2021/12/04 00:49:49;;;;;;;3.17;2.70;;;2.80;99.90;;;;;;5083963;28;20235;-65
2021/12/04 00:52:15;;;;;;;3.37;3.07;;;2.80;99.90;;;;;;5068888;28;20444;-67
2021/12/04 00:54:40;;;;;;;3.43;2.67;;;2.90;99.90;;;;;;5068593;28;20190;-66
2021/12/04 00:57:06;;;;;;;4.10;3.27;;;2.90;99.90;;;;;;5068852;28;20602;-66
2021/12/04 00:59:32;;;;;;;4.07;3.03;;;3.00;99.90;;;;;;5083691;28;20208;-66
2021/12/04 01:01:57;;;;;;;6.33;3.57;;;2.80;99.90;;;;;;5086028;28;20203;-65
2021/12/04 01:04:23;;;;;;;5.83;3.50;;;2.80;99.90;;;;;;5086211;28;20886;-66
2021/12/04 01:06:50;;;;;;;4.20;3.80;;;2.80;99.90;;;;;;5085617;28;20223;-66
2021/12/04 01:09:22;;;;;;;5.40;3.70;;;2.80;99.90;;;;;;5086181;28;20188;-66
2021/12/04 01:11:48;;;;;;;3.63;3.33;;;2.80;99.90;;;;;;5084913;28;20244;-64
2021/12/04 01:14:16;;;;;;;3.63;3.33;;;2.80;99.90;;;;;;5084732;28;20275;-66
2021/12/04 01:16:42;;;;;;;4.57;3.30;;;2.80;99.90;;;;;;5086396;28;20201;-66
2021/12/04 01:19:08;;;;;;;4.50;3.20;;;2.80;99.90;;;;;;5086407;28;20232;-67
2021/12/04 01:21:34;;;;;;;3.70;3.27;;;2.80;99.90;;;;;;5086318;28;21265;-67
2021/12/04 01:24:00;;;;;;;5.20;2.90;;;2.90;99.90;;;;;;5084508;28;20290;-65
2021/12/04 01:26:26;;;;;;;4.80;3.05;;;2.80;99.90;;;;;;5086639;28;20866;-65
2021/12/04 01:28:52;;;;;;;6.07;3.40;;;2.80;99.90;;;;;;5086803;28;20195;-66
2021/12/04 01:31:18;;;;;;;42.93;16.53;;;2.80;99.90;;;;;;5085788;28;21226;-66
2021/12/04 01:33:44;;;;;;;7.80;4.43;;;2.80;99.90;;;;;;5086580;28;20195;-67
2021/12/04 01:36:10;;;;;;;5.53;3.60;;;2.70;99.90;;;;;;5087335;28;20193;-66
2021/12/04 01:38:36;;;;;;;4.50;3.53;;;2.70;99.90;;;;;;5085455;28;20211;-67
2021/12/04 01:41:02;;;;;;;4.70;4.07;;;2.50;99.90;;;;;;5087439;28;20901;-65
2021/12/04 01:43:28;;;;;;;4.35;3.92;;;2.40;99.90;;;;;;5086588;28;20457;-64
2021/12/04 01:45:55;;;;;;;5.27;4.63;;;2.30;99.90;;;;;;5087183;28;20182;-65
2021/12/04 01:48:23;;;;;;;6.47;4.65;;;2.10;99.90;;;;;;5086380;28;20177;-65
2021/12/04 01:50:49;;;;;;;7.78;5.05;;;2.00;99.90;;;;;;5087391;28;20193;-68
2021/12/04 01:53:15;;;;;;;7.80;4.37;;;1.90;99.90;;;;;;5085347;28;20183;-64
2021/12/04 01:55:40;;;;;;;4.78;4.38;;;1.80;99.90;;;;;;5085304;28;20195;-65
2021/12/04 01:58:07;;;;;;;5.50;4.10;;;1.80;99.90;;;;;;5086828;28;20241;-64
2021/12/04 02:00:38;;;;;;;7.75;4.30;;;1.70;99.90;;;;;;5087441;28;20188;-65
2021/12/04 02:03:07;;;;;;;3.78;3.25;;;1.60;99.90;;;;;;5088996;28;20211;-67
2021/12/04 02:05:33;;;;;;;3.30;3.00;;;1.60;99.90;;;;;;5089934;28;20585;-66
2021/12/04 02:07:59;;;;;;;5.50;3.60;;;1.70;99.90;;;;;;5090155;28;20202;-65
2021/12/04 02:10:25;;;;;;;3.67;3.05;;;1.80;99.90;;;;;;5089226;28;20195;-66
2021/12/04 02:12:51;;;;;;;4.17;3.53;;;1.80;99.90;;;;;;5088694;28;20193;-65
2021/12/04 02:15:17;;;;;;;3.10;2.73;;;1.80;99.90;;;;;;5090249;28;20512;-64
2021/12/04 02:17:48;;;;;;;3.00;2.75;;;1.90;99.90;;;;;;5089963;28;20203;-64
2021/12/04 02:20:23;;;;;;;3.83;2.90;;;1.90;99.90;;;;;;5088920;28;20187;-66
2021/12/04 02:22:49;;;;;;;3.20;2.85;;;2.00;99.90;;;;;;5089782;28;20267;-66
2021/12/04 02:25:16;;;;;;;2.92;2.40;;;2.00;99.90;;;;;;5088614;28;20200;-66
2021/12/04 02:27:43;;;;;;;3.00;2.70;;;2.20;99.90;;;;;;5088199;28;20223;-66
2021/12/04 02:30:16;;;;;;;3.53;2.20;;;2.30;99.90;;;;;;5090085;28;20202;-65
2021/12/04 02:32:41;;;;;;;2.35;2.15;;;2.40;99.90;;;;;;5090526;28;20188;-66
2021/12/04 02:35:09;;;;;;;4.40;2.90;;;2.30;99.90;;;;;;5090742;28;20200;-64
2021/12/04 02:37:36;;;;;;;2.47;2.28;;;2.30;99.90;;;;;;5089570;28;20972;-65
2021/12/04 02:40:05;;;;;;;1.83;1.73;;;2.40;99.90;;;;;;5088484;28;20772;-65
2021/12/04 02:42:31;;;;;;;4.13;2.40;;;2.40;99.90;;;;;;5089212;28;20215;-65
2021/12/04 02:45:03;;;;;;;2.60;2.40;;;2.50;99.90;;;;;;5090021;28;20577;-67
2021/12/04 02:47:29;;;;;;;1.90;1.80;;;2.50;99.90;;;;;;5089655;28;20285;-65
2021/12/04 02:49:56;;;;;;;2.33;1.80;;;2.40;99.90;;;;;;5089566;28;20187;-66
2021/12/04 02:52:22;;;;;;;2.45;2.25;;;2.40;99.90;;;;;;5089446;28;20207;-67
2021/12/04 02:54:50;;;;;;;1.95;1.85;;;2.50;99.90;;;;;;5088205;28;20215;-67
2021/12/04 02:57:18;;;;;;;2.95;2.65;;;2.50;99.90;;;;;;5089197;28;20223;-66
2021/12/04 02:59:44;;;;;;;2.20;2.10;;;2.60;99.90;;;;;;5089411;28;20211;-65
2021/12/04 03:02:23;;;;;;;2.30;2.10;;;2.50;99.90;;;;;;5089598;28;20544;-65
2021/12/04 03:04:58;;;;;;;1.85;1.70;;;2.60;99.90;;;;;;5087109;28;20545;-65
2021/12/04 03:07:24;;;;;;;1.65;1.55;;;2.60;99.90;;;;;;5088647;28;20219;-65
2021/12/04 03:09:50;;;;;;;2.40;1.87;;;2.60;99.90;;;;;;5087736;28;20194;-64
2021/12/04 03:12:19;;;;;;;1.45;1.35;;;2.60;99.90;;;;;;5086176;28;20284;-64
2021/12/04 03:14:45;;;;;;;1.35;1.23;;;2.60;99.90;;;;;;5089539;28;20175;-64
2021/12/04 03:17:10;;;;;;;1.40;1.30;;;2.70;99.90;;;;;;5087745;28;20191;-64
2021/12/04 03:19:38;;;;;;;1.67;1.57;;;2.80;99.90;;;;;;5089217;28;20471;-65
2021/12/04 03:22:06;;;;;;;1.55;1.45;;;2.80;99.90;;;;;;5088716;28;20524;-65
2021/12/04 03:24:35;;;;;;;1.48;1.38;;;2.80;99.90;;;;;;5089317;28;20189;-66
2021/12/04 03:27:00;;;;;;;1.37;1.27;;;2.90;99.90;;;;;;5088660;28;20588;-66
2021/12/04 03:29:28;;;;;;;1.50;1.10;;;3.00;99.90;;;;;;5070974;28;20427;-65
2021/12/04 03:43:09;;;;;;;1.00;0.90;;;3.10;99.90;;;;;;5085819;28;20211;-63
2021/12/04 03:45:37;;;;;;;0.77;0.77;;;3.20;99.90;;;;;;5088949;28;20197;-64
2021/12/04 03:48:17;;;;;;;0.90;0.90;;;3.20;99.90;;;;;;5085019;28;20426;-65
2021/12/04 03:50:43;;;;;;;1.13;1.02;;;3.10;99.90;;;;;;5086052;28;20199;-65
2021/12/04 03:53:09;;;;;;;0.73;0.73;;;3.10;99.90;;;;;;5089011;28;20560;-65
2021/12/04 03:55:35;;;;;;;0.70;0.70;;;3.20;99.90;;;;;;5086838;28;20190;-67
2021/12/04 03:58:01;;;;;;;0.80;0.80;;;3.20;99.90;;;;;;5086392;28;20237;-67
2021/12/04 04:00:28;;;;;;;2.15;0.70;;;3.20;99.90;;;;;;5087055;28;20564;-65
2021/12/04 04:02:56;;;;;;;0.80;0.70;;;3.20;99.90;;;;;;5089128;28;20208;-64
2021/12/04 04:05:22;;;;;;;2.15;0.70;;;3.20;99.90;;;;;;5088334;28;20195;-64
2021/12/04 04:07:47;;;;;;;1.10;1.00;;;3.20;99.90;;;;;;5087606;28;20204;-65
2021/12/04 04:10:14;;;;;;;1.43;0.90;;;3.30;99.90;;;;;;5086686;28;20274;-64
2021/12/04 04:12:39;;;;;;;1.13;0.77;;;3.30;99.90;;;;;;5087098;28;20230;-64
2021/12/04 04:15:05;;;;;;;0.90;0.50;;;3.30;99.90;;;;;;5087508;28;20251;-64
2021/12/04 04:17:31;;;;;;;0.70;0.60;;;3.40;99.90;;;;;;5087224;28;20242;-65
2021/12/04 04:19:58;;;;;;;0.60;0.50;;;3.40;99.90;;;;;;5088604;28;20429;-64
2021/12/04 04:22:23;;;;;;;0.60;0.60;;;3.40;99.90;;;;;;5086827;28;20187;-65
2021/12/04 04:24:49;;;;;;;0.80;0.50;;;3.50;99.90;;;;;;5087562;28;20188;-64
2021/12/04 04:27:15;;;;;;;0.60;0.40;;;3.50;99.90;;;;;;5053019;28;20192;-65
2021/12/04 04:29:40;;;;;;;0.73;0.50;;;3.60;99.90;;;;;;5088182;28;20652;-65
2021/12/04 04:32:06;;;;;;;0.60;0.60;;;3.60;99.90;;;;;;5087886;28;20215;-63
2021/12/04 04:34:34;;;;;;;0.70;0.60;;;3.70;99.90;;;;;;5088144;28;20200;-64
2021/12/04 04:40:11;;;;;;;0.60;0.40;;;3.80;99.90;;;;;;5088883;28;20340;-64
2021/12/04 05:12:35;;;;;;;0.50;0.30;;;4.60;99.90;;;;;;5083349;28;20419;-66
2021/12/04 05:15:11;;;;;;;0.50;0.30;;;4.70;99.90;;;;;;5076632;28;20189;-66
2021/12/04 05:20:32;;;;;;;0.50;0.40;;;4.70;99.90;;;;;;5078630;28;20182;-65
2021/12/04 05:22:58;;;;;;;0.50;0.30;;;4.70;99.90;;;;;;5086020;28;20556;-64
2021/12/04 05:25:24;;;;;;;0.47;0.30;;;4.70;99.90;;;;;;5085458;28;20843;-65
2021/12/04 05:27:50;;;;;;;0.50;0.30;;;4.70;99.90;;;;;;5085504;28;20428;-63
2021/12/04 05:30:16;;;;;;;0.50;0.30;;;4.70;99.90;;;;;;5087041;28;20208;-65
2021/12/04 05:32:41;;;;;;;0.47;0.30;;;4.80;99.90;;;;;;5086838;28;20187;-64
2021/12/04 05:35:07;;;;;;;0.50;0.30;;;4.90;99.90;;;;;;5086974;28;20194;-65
2021/12/04 05:37:33;;;;;;;0.50;0.33;;;4.90;99.90;;;;;;5089930;28;20186;-65
2021/12/04 05:39:59;;;;;;;0.50;0.30;;;4.80;99.90;;;;;;5090686;28;20423;-65
2021/12/04 05:42:24;;;;;;;0.50;0.30;;;4.90;99.90;;;;;;5090541;28;20537;-66
2021/12/04 05:44:50;;;;;;;0.50;0.30;;;4.90;99.90;;;;;;5071971;28;20249;-67
2021/12/04 05:47:24;;;;;;;0.50;0.30;;;4.90;99.90;;;;;;5089150;28;20204;-65
2021/12/04 05:49:58;;;;;;;0.47;0.30;;;5.00;99.90;;;;;;5090526;28;20622;-64
2021/12/04 05:57:36;;;;;;;0.40;0.20;;;5.00;99.90;;;;;;5088291;28;20428;-67
2021/12/04 06:00:05;;;;;;;0.50;0.30;;;5.00;99.90;;;;;;5088574;28;20197;-67
2021/12/04 06:02:31;;;;;;;0.40;0.30;;;5.00;99.90;;;;;;5089200;28;20231;-68
2021/12/04 06:04:56;;;;;;;0.50;0.30;;;5.00;99.90;;;;;;5088121;28;21199;-66
2021/12/04 06:07:22;;;;;;;0.50;0.30;;;5.00;99.90;;;;;;5088626;28;20233;-66
2021/12/04 06:09:48;;;;;;;0.50;0.30;;;5.00;99.90;;;;;;5087081;28;20301;-66
2021/12/04 06:12:13;;;;;;;0.40;0.30;;;5.00;99.90;;;;;;5088418;28;20186;-66
2021/12/04 06:14:39;;;;;;;0.50;0.40;;;5.00;99.90;;;;;;5087037;28;20194;-66
2021/12/04 06:17:05;;;;;;;68.77;25.07;;;5.00;99.90;;;;;;5088765;28;20185;-67
2021/12/04 06:22:59;;;;;;;0.70;0.37;;;5.00;99.90;;;;;;5085659;28;20278;-68
2021/12/04 06:25:00;;;;;;;0.50;0.40;;;5.30;99.90;;;;;;5083829;28;20444;-67
2021/12/04 06:27:26;;;;;;;0.50;0.30;;;5.20;99.90;;;;;;5089071;28;21448;-67
2021/12/04 06:29:51;;;;;;;0.50;0.27;;;5.20;99.90;;;;;;5070599;28;20415;-67
2021/12/04 06:32:19;;;;;;;0.50;0.30;;;5.20;99.90;;;;;;5089124;28;20630;-67
2021/12/04 06:34:44;;;;;;;0.60;0.40;;;5.30;99.90;;;;;;5088816;28;20380;-66
2021/12/04 06:37:10;;;;;;;0.50;0.30;;;5.20;99.90;;;;;;5087342;28;20555;-67
2021/12/04 06:39:36;;;;;;;0.50;0.30;;;5.20;99.90;;;;;;5084044;28;20221;-67
2021/12/04 06:42:02;;;;;;;0.50;0.30;;;5.20;99.90;;;;;;5085469;28;20183;-67
2021/12/04 06:44:27;;;;;;;0.50;0.30;;;5.20;99.90;;;;;;5083263;28;20186;-66
2021/12/04 06:46:54;;;;;;;0.60;0.30;;;5.20;99.90;;;;;;5083591;28;20440;-66
2021/12/04 06:49:28;;;;;;;0.60;0.30;;;5.20;99.90;;;;;;5085363;28;20926;-66
2021/12/04 06:51:57;;;;;;;0.50;0.30;;;5.20;99.90;;;;;;5084925;28;20436;-66
2021/12/04 06:54:27;;;;;;;0.50;0.30;;;5.30;99.90;;;;;;5084492;28;20460;-67
2021/12/04 06:56:53;;;;;;;0.50;0.30;;;5.30;99.90;;;;;;5084226;28;21340;-66
2021/12/04 06:59:26;;;;;;;0.50;0.30;;;5.30;99.90;;;;;;5083387;28;20474;-67
2021/12/04 07:01:51;;;;;;;0.50;0.30;;;5.20;99.90;;;;;;5084980;28;20259;-68
2021/12/04 07:04:19;;;;;;;1.20;0.57;;;5.20;99.90;;;;;;5084999;28;20436;-68
2021/12/04 07:06:47;;;;;;;0.60;0.40;;;5.20;99.90;;;;;;5083953;28;20649;-68
2021/12/04 07:09:12;;;;;;;0.50;0.30;;;5.20;99.90;;;;;;5082852;28;20797;-68
2021/12/04 07:11:38;;;;;;;1.17;0.40;;;5.20;99.90;;;;;;5082214;28;20521;-68
2021/12/04 07:14:04;;;;;;;0.60;0.50;;;5.20;99.90;;;;;;5083058;28;20190;-68
2021/12/04 07:16:30;;;;;;;0.50;0.30;;;5.20;99.90;;;;;;5084673;28;20683;-68
2021/12/04 07:18:55;;;;;;;0.50;0.37;;;5.20;99.90;;;;;;5084967;28;20217;-68
2021/12/04 07:21:21;;;;;;;0.50;0.30;;;5.20;99.90;;;;;;5082372;28;20704;-68
2021/12/04 07:23:47;;;;;;;0.60;0.30;;;5.20;99.90;;;;;;5082601;28;20296;-69
2021/12/04 07:26:13;;;;;;;0.60;0.40;;;5.30;99.90;;;;;;5083452;28;20431;-66
2021/12/04 07:28:39;;;;;;;0.50;0.30;;;5.40;99.90;;;;;;5084766;28;20190;-67
2021/12/04 07:31:05;;;;;;;0.50;0.30;;;5.40;99.90;;;;;;5084744;28;20222;-68
2021/12/04 07:33:31;;;;;;;0.60;0.30;;;5.40;99.90;;;;;;5084630;28;20487;-68
2021/12/04 07:36:00;;;;;;;0.50;0.30;;;5.50;99.90;;;;;;5082409;28;20440;-68
2021/12/04 07:38:26;;;;;;;0.60;0.40;;;5.50;99.90;;;;;;5080950;28;20890;-68
2021/12/04 07:40:52;;;;;;;0.50;0.30;;;5.50;99.90;;;;;;5082844;28;20422;-69
2021/12/04 07:43:18;;;;;;;0.50;0.30;;;5.60;99.90;;;;;;5083421;28;20912;-68
2021/12/04 07:45:44;;;;;;;0.60;0.30;;;5.60;99.90;;;;;;5082723;28;20182;-68
2021/12/04 07:48:09;;;;;;;0.50;0.30;;;5.60;99.90;;;;;;5084591;28;20229;-68
2021/12/04 07:50:36;;;;;;;0.50;0.30;;;5.70;99.90;;;;;;5065066;28;20186;-68
2021/12/04 07:53:02;;;;;;;0.50;0.30;;;5.70;99.90;;;;;;5083996;28;20201;-68
2021/12/04 07:55:29;;;;;;;0.60;0.30;;;5.70;99.90;;;;;;5082061;28;20433;-68
2021/12/04 07:57:54;;;;;;;0.80;0.30;;;5.80;99.90;;;;;;5083954;28;20571;-67
2021/12/04 08:00:22;;;;;;;0.50;0.30;;;5.90;99.90;;;;;;5084227;28;20610;-68
2021/12/04 08:02:48;;;;;;;0.60;0.50;;;5.90;99.90;;;;;;5084332;28;21047;-68
2021/12/04 08:05:16;;;;;;;0.70;0.70;;;5.90;99.90;;;;;;5082813;28;20432;-68
2021/12/04 08:07:42;;;;;;;0.60;0.30;;;6.00;99.90;;;;;;5083986;28;20440;-68
2021/12/04 08:10:10;;;;;;;0.50;0.30;;;6.00;99.90;;;;;;5082713;28;20535;-68
2021/12/04 08:12:37;;;;;;;0.50;0.30;;;6.00;99.90;;;;;;5083377;28;20520;-68
2021/12/04 08:15:08;;;;;;;0.60;0.40;;;6.00;99.90;;;;;;5083644;28;21196;-68
2021/12/04 08:17:34;;;;;;;0.57;0.33;;;6.00;99.90;;;;;;5082759;28;20527;-68
2021/12/04 08:20:00;;;;;;;0.57;0.40;;;6.10;99.90;;;;;;5083820;28;20489;-68
2021/12/04 08:22:26;;;;;;;0.60;0.40;;;6.00;99.90;;;;;;5065140;28;20810;-68
2021/12/04 08:24:52;;;;;;;0.60;0.40;;;6.10;99.90;;;;;;5083967;28;20217;-68
2021/12/04 08:27:19;;;;;;;0.60;0.40;;;6.10;99.90;;;;;;5082424;28;20197;-68
2021/12/04 08:29:45;;;;;;;1.23;0.40;;;6.10;99.90;;;;;;5081358;28;20665;-68
2021/12/04 08:32:11;;;;;;;0.60;0.50;;;6.10;99.90;;;;;;5082947;28;20498;-69
2021/12/04 08:34:38;;;;;;;0.60;0.37;;;6.10;99.90;;;;;;5082884;28;20218;-68
2021/12/04 08:37:04;;;;;;;0.70;0.40;;;6.10;99.90;;;;;;5083718;28;20182;-69
2021/12/04 08:39:30;;;;;;;0.70;0.40;;;6.20;99.90;;;;;;5083556;28;20472;-68
2021/12/04 08:41:58;;;;;;;0.60;0.40;;;6.20;99.90;;;;;;5083128;28;20421;-68
2021/12/04 08:44:23;;;;;;;0.60;0.40;;;6.20;99.90;;;;;;5081631;28;20429;-69
2021/12/04 08:46:50;;;;;;;0.60;0.40;;;6.20;99.90;;;;;;5065592;28;20447;-68
2021/12/04 08:49:16;;;;;;;9.10;6.30;;;6.30;99.90;;;;;;5082044;28;20802;-68
2021/12/04 08:51:42;;;;;;;0.60;0.40;;;6.30;99.90;;;;;;5083486;28;20464;-68
2021/12/04 08:54:09;;;;;;;0.60;0.50;;;6.50;99.90;;;;;;5064945;28;20513;-68
2021/12/04 08:56:35;;;;;;;0.60;0.30;;;6.50;99.90;;;;;;5065098;28;20606;-67
2021/12/04 08:59:05;;;;;;;0.60;0.40;;;6.60;99.90;;;;;;5083431;28;20456;-67
2021/12/04 09:01:34;;;;;;;0.50;0.30;;;6.80;99.90;;;;;;5082998;28;20197;-68
2021/12/04 09:04:15;;;;;;;0.60;0.40;;;6.80;99.90;;;;;;5083026;28;20428;-68
2021/12/04 09:06:41;;;;;;;0.60;0.40;;;6.90;99.90;;;;;;5081016;28;20456;-67
2021/12/04 09:09:09;;;;;;;0.60;0.50;;;7.00;99.90;;;;;;5079007;28;20587;-68
2021/12/04 09:11:48;;;;;;;0.60;0.40;;;7.00;99.90;;;;;;5088339;28;20445;-68
2021/12/04 09:14:17;;;;;;;0.50;0.30;;;7.00;99.90;;;;;;5085470;28;20474;-68
2021/12/04 09:16:43;;;;;;;1.27;0.40;;;7.10;99.90;;;;;;5088564;28;20443;-67
2021/12/04 09:19:10;;;;;;;1.17;0.50;;;7.10;99.90;;;;;;5088699;28;20468;-67
2021/12/04 09:21:38;;;;;;;0.60;0.30;;;7.10;99.90;;;;;;5088682;28;20432;-67
2021/12/04 09:24:15;;;;;;;0.50;0.40;;;7.20;99.90;;;;;;5088195;28;20421;-68
2021/12/04 09:40:31;;;;;;;0.60;0.30;;;7.40;99.90;;;;;;5087297;28;20232;-68
2021/12/04 10:18:57;;;;;;;0.50;0.40;;;7.80;99.90;;;;;;5087237;28;20471;-68
2021/12/04 10:34:58;;;;;;;0.60;0.30;;;8.00;99.90;;;;;;5087429;28;20460;-68
2021/12/04 10:37:27;;;;;;;0.63;0.50;;;8.00;99.90;;;;;;5085564;28;20194;-68
2021/12/04 10:39:55;;;;;;;0.60;0.43;;;8.10;99.90;;;;;;5085666;28;20558;-68
2021/12/04 10:42:26;;;;;;;1.20;0.40;;;7.90;99.90;;;;;;5087920;28;20916;-67
2021/12/04 10:44:54;;;;;;;3.53;0.60;;;7.90;99.90;;;;;;5087656;28;20430;-67
2021/12/04 10:47:23;;;;;;;0.60;0.40;;;8.00;99.90;;;;;;5087342;28;20511;-67
2021/12/04 10:52:33;;;;;;;3.60;0.50;;;8.10;99.90;;;;;;5086180;28;20493;-67
2021/12/04 10:55:15;;;;;;;0.70;0.50;;;8.10;99.90;;;;;;5085857;28;20437;-67
2021/12/04 11:00:38;;;;;;;0.70;0.40;;;8.10;99.90;;;;;;5084117;28;20911;-67
2021/12/04 11:03:37;;;;;;;0.73;0.40;;;8.10;99.90;;;;;;5087536;28;20889;-67
2021/12/04 11:26:52;;;;;;;0.70;0.40;;;7.80;99.90;;;;;;5085905;28;20483;-67
2021/12/04 11:35:17;;;;;;;1.20;0.50;;;7.50;99.90;;;;;;5083641;28;20454;-67
2021/12/04 11:40:35;;;;;;;0.60;0.40;;;7.40;99.90;;;;;;5085329;28;20466;-67
2021/12/04 11:43:04;;;;;;;0.60;0.40;;;7.50;99.90;;;;;;5086267;28;20428;-67
2021/12/04 11:48:32;;;;;;;0.80;0.57;;;7.70;99.90;;;;;;5083032;28;21126;-66
2021/12/04 11:50:58;;;;;;;0.60;0.43;;;7.80;99.90;;;;;;5084000;28;20433;-67
2021/12/04 11:53:25;;;;;;;0.60;0.40;;;7.90;99.90;;;;;;5082990;28;20435;-67
2021/12/04 11:55:51;;;;;;;0.70;0.70;;;7.90;99.90;;;;;;5081969;28;20529;-68
2021/12/04 11:58:22;;;;;;;0.60;0.40;;;8.00;99.90;;;;;;5083615;28;20486;-67
2021/12/04 12:00:49;;;;;;;0.60;0.40;;;8.00;99.90;;;;;;5083291;28;20432;-67
2021/12/04 12:03:16;;;;;;;0.53;0.40;;;8.00;99.90;;;;;;5083201;28;20441;-67
2021/12/04 12:05:55;;;;;;;0.60;0.43;;;8.00;99.90;;;;;;5080907;28;20565;-67
2021/12/04 12:08:34;;;;;;;0.70;0.50;;;8.00;99.90;;;;;;5081825;28;20448;-68
2021/12/04 12:11:01;;;;;;;0.93;0.40;;;8.20;99.90;;;;;;5081617;28;20429;-67
2021/12/04 12:13:34;;;;;;;0.60;0.30;;;8.30;99.90;;;;;;5081162;28;20433;-68
2021/12/04 12:16:21;;;;;;;0.60;0.37;;;8.40;99.90;;;;;;5082049;28;20835;-68
2021/12/04 12:18:59;;;;;;;0.60;0.30;;;8.40;99.90;;;;;;5081265;28;20456;-67
2021/12/04 12:21:33;;;;;;;0.60;0.43;;;8.40;99.90;;;;;;5083254;28;20417;-67
2021/12/04 12:27:11;;;;;;;11.93;7.13;;;8.40;99.90;;;;;;5081066;28;20424;-67
2021/12/04 12:33:13;;;;;;;0.60;0.40;;;8.50;99.90;;;;;;5083815;28;20459;-67
2021/12/04 12:36:11;;;;;;;2.17;1.60;;;8.40;99.90;;;;;;5084703;28;20436;-67
2021/12/04 12:38:50;;;;;;;1.63;1.53;;;8.20;99.90;;;;;;5083370;28;20472;-68
2021/12/04 12:41:42;;;;;;;8.27;5.20;;;8.00;99.90;;;;;;5084331;28;20434;-67
2021/12/04 12:44:29;;;;;;;1.00;0.90;;;7.90;99.90;;;;;;5083568;28;20450;-68
2021/12/04 12:47:02;;;;;;;0.70;0.60;;;7.90;99.90;;;;;;5082027;28;20425;-67
2021/12/04 12:49:38;;;;;;;0.80;0.70;;;7.90;99.90;;;;;;5081022;28;20437;-67
2021/12/04 12:52:28;;;;;;;1.07;0.50;;;8.00;99.90;;;;;;5084465;28;20435;-67
2021/12/04 12:55:09;;;;;;;0.83;0.50;;;8.10;99.90;;;;;;5081834;28;20418;-67
2021/12/04 12:57:38;;;;;;;0.60;0.40;;;8.10;99.90;;;;;;5083215;28;20424;-68
2021/12/04 13:14:23;;;;;;;1.03;0.40;;;8.20;99.90;;;;;;5061487;28;20424;-67
2021/12/04 13:17:03;;;;;;;0.60;0.30;;;8.20;99.90;;;;;;5080231;28;20912;-68
2021/12/04 13:19:32;;;;;;;0.80;0.70;;;8.10;99.90;;;;;;5083541;28;20467;-67
2021/12/04 13:22:03;;;;;;;0.70;0.40;;;8.10;99.90;;;;;;5085772;28;20546;-67
2021/12/04 13:24:31;;;;;;;0.80;0.40;;;8.10;99.90;;;;;;5085355;28;20430;-67
2021/12/04 13:29:36;;;;;;;1.53;1.43;;;8.10;99.90;;;;;;5085320;28;20428;-67
2021/12/04 13:32:04;;;;;;;0.63;0.50;;;8.10;99.90;;;;;;5083776;28;20523;-67
2021/12/04 13:34:30;;;;;;;1.47;1.10;;;8.10;99.90;;;;;;5085077;28;20770;-68
2021/12/04 13:36:58;;;;;;;1.00;0.80;;;8.20;99.90;;;;;;5084953;28;20864;-68
2021/12/04 13:39:25;;;;;;;1.90;0.80;;;8.10;99.90;;;;;;5083011;28;20467;-67
2021/12/04 13:41:53;;;;;;;16.80;8.27;;;8.10;99.90;;;;;;5049895;28;20413;-68
2021/12/04 13:44:22;;;;;;;1.30;0.80;;;8.00;99.90;;;;;;5082814;28;20507;-68
2021/12/04 13:46:51;;;;;;;0.60;0.50;;;8.10;99.90;;;;;;5066708;28;20429;-68
2021/12/04 13:49:33;;;;;;;0.70;0.70;;;8.10;99.90;;;;;;5084382;28;20478;-68
2021/12/04 13:52:06;;;;;;;0.73;0.57;;;8.10;99.90;;;;;;5067690;28;20552;-68
2021/12/04 13:54:39;;;;;;;1.33;1.10;;;8.10;99.90;;;;;;5050616;28;20823;-68
2021/12/04 13:57:12;;;;;;;1.23;0.73;;;8.20;99.90;;;;;;5068586;28;20519;-68
2021/12/04 13:59:38;;;;;;;1.10;1.00;;;8.10;99.90;;;;;;5070186;28;20933;-68
2021/12/04 14:02:04;;;;;;;0.73;0.43;;;8.10;99.90;;;;;;5088613;28;20448;-68
2021/12/04 14:04:31;;;;;;;3.47;1.80;;;8.10;99.90;;;;;;5086935;28;20952;-68
2021/12/04 14:07:02;;;;;;;1.07;0.53;;;8.20;99.90;;;;;;5069251;28;20954;-68
2021/12/04 14:09:37;;;;;;;0.70;0.60;;;8.20;99.90;;;;;;5087996;28;21045;-68
2021/12/04 14:12:05;;;;;;;0.90;0.90;;;8.20;99.90;;;;;;5086055;28;20470;-68
2021/12/04 14:14:33;;;;;;;2.90;1.10;;;8.20;99.90;;;;;;5087981;28;20413;-68
2021/12/04 14:17:04;;;;;;;1.90;1.07;;;8.30;99.90;;;;;;5086302;28;20436;-68
2021/12/04 14:19:30;;;;;;;1.60;0.90;;;8.30;99.90;;;;;;5086904;28;20573;-67
2021/12/04 14:22:04;;;;;;;1.43;0.90;;;8.20;99.90;;;;;;5086305;28;20516;-69
2021/12/04 14:24:43;;;;;;;0.70;0.50;;;8.20;99.90;;;;;;5084570;28;20221;-68
2021/12/04 14:27:21;;;;;;;1.23;0.80;;;8.10;99.90;;;;;;5079568;28;20504;-69
2021/12/04 14:29:50;;;;;;;3.23;1.80;;;8.00;99.90;;;;;;5085201;28;20429;-68
2021/12/04 14:32:24;;;;;;;4.10;1.73;;;7.90;99.90;;;;;;5083481;28;20420;-69
2021/12/04 14:35:03;;;;;;;1.77;0.90;;;7.90;99.90;;;;;;5069149;28;21057;-69
2021/12/04 14:37:33;;;;;;;2.73;1.53;;;7.80;99.90;;;;;;5082748;28;20428;-69
2021/12/04 14:39:59;;;;;;;2.00;0.80;;;7.80;99.90;;;;;;5085803;28;21027;-70
2021/12/04 14:42:31;;;;;;;0.97;0.67;;;7.90;99.90;;;;;;5085763;28;20447;-69
2021/12/04 14:45:03;;;;;;;0.60;0.50;;;7.90;99.90;;;;;;5085360;28;20427;-69
2021/12/04 14:47:35;;;;;;;4.63;2.57;;;7.90;99.90;;;;;;5084990;28;20428;-70
2021/12/04 14:50:02;;;;;;;1.67;1.13;;;7.90;99.90;;;;;;5081908;28;20524;-68
2021/12/04 14:52:32;;;;;;;0.70;0.47;;;7.90;99.90;;;;;;5087010;28;20441;-68
2021/12/04 14:54:58;;;;;;;0.83;0.83;;;8.00;99.90;;;;;;5068410;28;20535;-69
2021/12/04 14:57:28;;;;;;;3.90;2.30;;;8.00;99.90;;;;;;5085208;28;20432;-68
2021/12/04 15:00:15;;;;;;;1.63;0.80;;;8.00;99.90;;;;;;5085167;28;20460;-68
2021/12/04 15:02:50;;;;;;;1.10;1.00;;;8.00;99.90;;;;;;5084843;28;20449;-68
2021/12/04 15:05:25;;;;;;;2.63;2.53;;;8.00;99.90;;;;;;5086475;28;20438;-68
2021/12/04 15:08:06;;;;;;;0.90;0.73;;;8.10;99.90;;;;;;5085957;28;20474;-68
2021/12/04 15:10:32;;;;;;;0.60;0.50;;;8.10;99.90;;;;;;5065081;28;20436;-68
2021/12/04 15:12:59;;;;;;;2.10;1.70;;;8.20;99.90;;;;;;5068363;28;20424;-68
2021/12/04 15:15:34;;;;;;;0.90;0.67;;;8.30;99.90;;;;;;5085501;28;20448;-68
2021/12/04 15:18:08;;;;;;;1.00;0.97;;;8.40;99.90;;;;;;5081626;28;21064;-68
2021/12/04 15:20:35;;;;;;;1.50;0.70;;;8.40;99.90;;;;;;5085060;28;20446;-68
2021/12/04 15:23:06;;;;;;;0.70;0.63;;;8.50;99.90;;;;;;5084870;28;20432;-67
2021/12/04 15:25:35;;;;;;;0.90;0.70;;;8.40;99.90;;;;;;5084985;28;20468;-67
2021/12/04 15:28:13;;;;;;;1.00;0.60;;;8.50;99.90;;;;;;5087001;28;20922;-67
2021/12/04 15:30:44;;;;;;;1.27;1.00;;;8.60;99.90;;;;;;5085363;28;21244;-67
2021/12/04 15:33:24;;;;;;;0.87;0.50;;;8.60;99.90;;;;;;5085171;28;20442;-68
2021/12/04 15:35:51;;;;;;;0.97;0.57;;;8.80;99.90;;;;;;5084782;28;20425;-70
2021/12/04 15:38:32;;;;;;;0.70;0.47;;;9.00;99.90;;;;;;5086430;28;20463;-67
2021/12/04 15:41:17;;;;;;;0.60;0.30;;;9.10;99.90;;;;;;5069452;28;20547;-67
2021/12/04 15:53:57;;;;;;;0.60;0.40;;;9.40;99.90;;;;;;5084480;28;20443;-67
2021/12/04 15:56:29;;;;;;;1.00;0.50;;;9.30;99.90;;;;;;5084528;28;20526;-67
2021/12/04 15:58:55;;;;;;;0.80;0.30;;;9.40;99.90;;;;;;5084922;28;20487;-68
2021/12/04 16:01:27;;;;;;;0.63;0.40;;;9.40;99.90;;;;;;5086681;28;21304;-68
2021/12/04 16:03:53;;;;;;;0.70;0.50;;;9.40;99.90;;;;;;5082849;28;20183;-67
2021/12/04 16:06:19;;;;;;;0.70;0.53;;;9.40;99.90;;;;;;5084281;28;21237;-68
2021/12/04 16:08:45;;;;;;;0.70;0.50;;;9.30;99.90;;;;;;5085627;28;20436;-67
2021/12/04 16:11:14;;;;;;;4.00;0.93;;;9.30;99.90;;;;;;5084314;28;20188;-68
2021/12/04 16:13:47;;;;;;;0.80;0.47;;;9.20;99.90;;;;;;5078352;28;20193;-68
2021/12/04 16:16:17;;;;;;;0.70;0.40;;;9.20;99.90;;;;;;5062868;28;20454;-68
2021/12/04 16:18:44;;;;;;;2.37;0.50;;;9.20;99.90;;;;;;5081167;28;20475;-67
2021/12/04 16:21:13;;;;;;;0.60;0.40;;;9.20;99.90;;;;;;5081728;28;20445;-68
2021/12/04 16:23:41;;;;;;;0.70;0.57;;;9.20;99.90;;;;;;5081679;28;20413;-67
2021/12/04 16:26:11;;;;;;;0.70;0.50;;;9.20;99.90;;;;;;5078406;28;20428;-68
2021/12/04 16:29:01;;;;;;;0.60;0.40;;;9.20;99.90;;;;;;5082491;28;20520;-66
2021/12/04 16:36:44;;;;;;;0.60;0.47;;;9.10;99.90;;;;;;5078005;28;20420;-65